Broad Blunsdon, United Kingdom
Current Conditions -  °F | °C
As of 7:03 AM on Thursday 23 Oct 2014 (Local Time) from EGVA Reporting Station
Overcast Overcast  
Wind Chill: 52°   Ceiling: 1400
Heat Index: 52°   Visibility: 6mi
Dew Point: 48°   Wind: 12mph
Humidity: 88%   Direction: 230°SW
Pressure: 30.1"   Gusts: NA
Location:  51.61°N, 1.78°W
Report Text: EGVA 230603Z AUTO 23010KT 9999 OVC014 11/09 A3010 RMK AO2
Loading
Personal Weather Stations






























Interactive Weather Map
Tropical Storm Tracking
New forecast layout! Learn more

10-Day Weather Forecast

Advertisements
Track Severe Weather on mobile